sensor_id;sensor_type;location;lat;lon;timestamp;P1;durP1;ratioP1;P2;durP2;ratioP2
17345;SDS011;8790;53.590;10.002;2023-04-25T00:02:24;6.33;;;3.97;;
17345;SDS011;8790;53.590;10.002;2023-04-25T00:04:56;4.50;;;3.67;;
17345;SDS011;8790;53.590;10.002;2023-04-25T00:07:29;7.70;;;3.83;;
17345;SDS011;8790;53.590;10.002;2023-04-25T00:10:02;5.57;;;3.53;;
17345;SDS011;8790;53.590;10.002;2023-04-25T00:12:34;7.37;;;4.17;;
17345;SDS011;8790;53.590;10.002;2023-04-25T00:15:06;8.90;;;3.83;;
17345;SDS011;8790;53.590;10.002;2023-04-25T00:17:39;11.30;;;3.77;;
17345;SDS011;8790;53.590;10.002;2023-04-25T00:20:11;9.67;;;4.00;;
17345;SDS011;8790;53.590;10.002;2023-04-25T00:22:45;9.17;;;3.90;;
17345;SDS011;8790;53.590;10.002;2023-04-25T00:25:18;11.93;;;4.07;;
17345;SDS011;8790;53.590;10.002;2023-04-25T00:27:49;7.97;;;3.37;;
17345;SDS011;8790;53.590;10.002;2023-04-25T00:30:21;12.23;;;3.57;;
17345;SDS011;8790;53.590;10.002;2023-04-25T00:32:53;9.93;;;4.30;;
17345;SDS011;8790;53.590;10.002;2023-04-25T00:35:25;12.23;;;3.80;;
17345;SDS011;8790;53.590;10.002;2023-04-25T00:37:58;14.27;;;3.47;;
17345;SDS011;8790;53.590;10.002;2023-04-25T00:40:30;10.63;;;3.17;;
17345;SDS011;8790;53.590;10.002;2023-04-25T00:43:02;16.90;;;3.60;;
17345;SDS011;8790;53.590;10.002;2023-04-25T00:45:34;11.57;;;3.40;;
17345;SDS011;8790;53.590;10.002;2023-04-25T00:48:09;15.50;;;3.27;;
17345;SDS011;8790;53.590;10.002;2023-04-25T00:50:41;18.30;;;4.37;;
17345;SDS011;8790;53.590;10.002;2023-04-25T00:53:20;11.47;;;3.30;;
17345;SDS011;8790;53.590;10.002;2023-04-25T00:55:52;11.43;;;3.43;;
17345;SDS011;8790;53.590;10.002;2023-04-25T00:58:25;14.13;;;3.30;;
17345;SDS011;8790;53.590;10.002;2023-04-25T01:00:57;22.47;;;4.80;;
17345;SDS011;8790;53.590;10.002;2023-04-25T01:03:30;13.40;;;3.23;;
17345;SDS011;8790;53.590;10.002;2023-04-25T01:06:05;14.53;;;3.57;;
17345;SDS011;8790;53.590;10.002;2023-04-25T01:08:39;15.73;;;4.17;;
17345;SDS011;8790;53.590;10.002;2023-04-25T01:11:11;15.17;;;3.80;;
17345;SDS011;8790;53.590;10.002;2023-04-25T01:13:43;13.93;;;3.53;;
17345;SDS011;8790;53.590;10.002;2023-04-25T01:16:15;14.43;;;3.87;;
17345;SDS011;8790;53.590;10.002;2023-04-25T01:18:47;14.67;;;3.47;;
17345;SDS011;8790;53.590;10.002;2023-04-25T01:21:22;15.80;;;3.80;;
17345;SDS011;8790;53.590;10.002;2023-04-25T01:23:56;13.93;;;3.73;;
17345;SDS011;8790;53.590;10.002;2023-04-25T01:26:28;22.73;;;4.80;;
17345;SDS011;8790;53.590;10.002;2023-04-25T01:29:00;13.27;;;3.57;;
17345;SDS011;8790;53.590;10.002;2023-04-25T01:31:32;18.60;;;4.17;;
17345;SDS011;8790;53.590;10.002;2023-04-25T01:34:05;13.87;;;3.80;;
17345;SDS011;8790;53.590;10.002;2023-04-25T01:36:38;14.40;;;3.90;;
17345;SDS011;8790;53.590;10.002;2023-04-25T01:39:10;16.83;;;4.03;;
17345;SDS011;8790;53.590;10.002;2023-04-25T01:41:43;17.63;;;4.13;;
17345;SDS011;8790;53.590;10.002;2023-04-25T01:44:15;14.00;;;3.93;;
17345;SDS011;8790;53.590;10.002;2023-04-25T01:46:47;14.73;;;3.70;;
17345;SDS011;8790;53.590;10.002;2023-04-25T01:49:19;17.13;;;3.80;;
17345;SDS011;8790;53.590;10.002;2023-04-25T01:51:52;15.53;;;4.13;;
17345;SDS011;8790;53.590;10.002;2023-04-25T01:54:25;15.27;;;3.87;;
17345;SDS011;8790;53.590;10.002;2023-04-25T01:56:57;18.93;;;4.00;;
17345;SDS011;8790;53.590;10.002;2023-04-25T01:59:30;16.40;;;3.87;;
17345;SDS011;8790;53.590;10.002;2023-04-25T02:02:31;14.97;;;4.00;;
17345;SDS011;8790;53.590;10.002;2023-04-25T02:05:03;18.27;;;4.20;;
17345;SDS011;8790;53.590;10.002;2023-04-25T02:07:40;16.80;;;4.30;;
17345;SDS011;8790;53.590;10.002;2023-04-25T02:10:12;12.27;;;3.53;;
17345;SDS011;8790;53.590;10.002;2023-04-25T02:12:55;14.67;;;3.70;;
17345;SDS011;8790;53.590;10.002;2023-04-25T02:16:00;17.63;;;4.23;;
17345;SDS011;8790;53.590;10.002;2023-04-25T02:18:33;14.33;;;3.90;;
17345;SDS011;8790;53.590;10.002;2023-04-25T02:21:07;14.23;;;3.60;;
17345;SDS011;8790;53.590;10.002;2023-04-25T02:23:40;15.23;;;4.03;;
17345;SDS011;8790;53.590;10.002;2023-04-25T02:26:12;14.23;;;3.93;;
17345;SDS011;8790;53.590;10.002;2023-04-25T02:28:45;13.80;;;4.00;;
17345;SDS011;8790;53.590;10.002;2023-04-25T02:31:17;14.03;;;3.83;;
17345;SDS011;8790;53.590;10.002;2023-04-25T02:33:49;16.77;;;4.83;;
17345;SDS011;8790;53.590;10.002;2023-04-25T02:36:21;12.73;;;3.43;;
17345;SDS011;8790;53.590;10.002;2023-04-25T02:38:55;15.83;;;4.87;;
17345;SDS011;8790;53.590;10.002;2023-04-25T02:41:27;15.63;;;4.07;;
17345;SDS011;8790;53.590;10.002;2023-04-25T02:43:59;13.90;;;4.13;;
17345;SDS011;8790;53.590;10.002;2023-04-25T02:46:31;17.53;;;4.77;;
17345;SDS011;8790;53.590;10.002;2023-04-25T02:49:03;16.93;;;4.23;;
17345;SDS011;8790;53.590;10.002;2023-04-25T02:51:35;17.57;;;4.40;;
17345;SDS011;8790;53.590;10.002;2023-04-25T02:54:08;19.13;;;5.03;;
17345;SDS011;8790;53.590;10.002;2023-04-25T02:56:44;15.70;;;4.20;;
17345;SDS011;8790;53.590;10.002;2023-04-25T02:59:22;14.20;;;4.33;;
17345;SDS011;8790;53.590;10.002;2023-04-25T03:01:54;14.23;;;3.77;;
17345;SDS011;8790;53.590;10.002;2023-04-25T03:04:29;15.27;;;3.80;;
17345;SDS011;8790;53.590;10.002;2023-04-25T03:07:01;16.63;;;3.73;;
17345;SDS011;8790;53.590;10.002;2023-04-25T03:09:35;12.10;;;3.53;;
17345;SDS011;8790;53.590;10.002;2023-04-25T03:12:07;12.90;;;3.50;;
17345;SDS011;8790;53.590;10.002;2023-04-25T03:14:39;12.57;;;4.00;;
17345;SDS011;8790;53.590;10.002;2023-04-25T03:17:10;11.27;;;3.73;;
17345;SDS011;8790;53.590;10.002;2023-04-25T03:19:42;14.97;;;3.73;;
17345;SDS011;8790;53.590;10.002;2023-04-25T03:22:14;13.20;;;3.80;;
17345;SDS011;8790;53.590;10.002;2023-04-25T03:24:47;12.30;;;2.97;;
17345;SDS011;8790;53.590;10.002;2023-04-25T03:27:19;14.03;;;3.33;;
17345;SDS011;8790;53.590;10.002;2023-04-25T03:29:51;14.30;;;3.33;;
17345;SDS011;8790;53.590;10.002;2023-04-25T03:32:23;13.13;;;3.67;;
17345;SDS011;8790;53.590;10.002;2023-04-25T03:34:56;12.53;;;3.20;;
17345;SDS011;8790;53.590;10.002;2023-04-25T03:37:29;10.10;;;3.10;;
17345;SDS011;8790;53.590;10.002;2023-04-25T03:40:03;11.83;;;3.40;;
17345;SDS011;8790;53.590;10.002;2023-04-25T03:42:56;10.43;;;2.90;;
17345;SDS011;8790;53.590;10.002;2023-04-25T03:45:27;16.97;;;3.77;;
17345;SDS011;8790;53.590;10.002;2023-04-25T03:48:00;13.33;;;4.03;;
17345;SDS011;8790;53.590;10.002;2023-04-25T03:50:33;12.77;;;3.23;;
17345;SDS011;8790;53.590;10.002;2023-04-25T03:53:05;12.70;;;3.47;;
17345;SDS011;8790;53.590;10.002;2023-04-25T03:55:57;11.50;;;3.10;;
17345;SDS011;8790;53.590;10.002;2023-04-25T03:58:28;16.60;;;3.50;;
17345;SDS011;8790;53.590;10.002;2023-04-25T04:01:00;17.47;;;3.33;;
17345;SDS011;8790;53.590;10.002;2023-04-25T04:03:37;16.43;;;4.23;;
17345;SDS011;8790;53.590;10.002;2023-04-25T04:06:09;15.97;;;3.50;;
17345;SDS011;8790;53.590;10.002;2023-04-25T04:08:45;13.73;;;3.33;;
17345;SDS011;8790;53.590;10.002;2023-04-25T04:11:19;16.13;;;3.80;;
17345;SDS011;8790;53.590;10.002;2023-04-25T04:13:51;10.73;;;3.00;;
17345;SDS011;8790;53.590;10.002;2023-04-25T04:16:23;10.80;;;3.30;;
17345;SDS011;8790;53.590;10.002;2023-04-25T04:18:56;12.33;;;3.07;;
17345;SDS011;8790;53.590;10.002;2023-04-25T04:21:28;13.87;;;3.00;;
17345;SDS011;8790;53.590;10.002;2023-04-25T04:24:00;11.63;;;3.40;;
17345;SDS011;8790;53.590;10.002;2023-04-25T04:26:35;12.60;;;3.40;;
17345;SDS011;8790;53.590;10.002;2023-04-25T04:29:15;8.63;;;3.20;;
17345;SDS011;8790;53.590;10.002;2023-04-25T04:32:23;11.53;;;2.70;;
17345;SDS011;8790;53.590;10.002;2023-04-25T04:34:56;14.30;;;3.13;;
17345;SDS011;8790;53.590;10.002;2023-04-25T04:37:29;12.37;;;2.83;;
17345;SDS011;8790;53.590;10.002;2023-04-25T04:40:03;14.33;;;3.27;;
17345;SDS011;8790;53.590;10.002;2023-04-25T04:42:48;11.57;;;3.37;;
17345;SDS011;8790;53.590;10.002;2023-04-25T04:45:30;10.93;;;3.23;;
17345;SDS011;8790;53.590;10.002;2023-04-25T04:48:27;13.20;;;2.80;;
17345;SDS011;8790;53.590;10.002;2023-04-25T04:51:20;12.37;;;2.70;;
17345;SDS011;8790;53.590;10.002;2023-04-25T04:53:52;12.30;;;2.90;;
17345;SDS011;8790;53.590;10.002;2023-04-25T04:56:47;11.20;;;2.27;;
17345;SDS011;8790;53.590;10.002;2023-04-25T04:59:30;8.27;;;3.00;;
17345;SDS011;8790;53.590;10.002;2023-04-25T05:02:11;9.77;;;2.80;;
17345;SDS011;8790;53.590;10.002;2023-04-25T05:04:56;10.67;;;2.50;;
17345;SDS011;8790;53.590;10.002;2023-04-25T05:07:39;11.83;;;2.97;;
17345;SDS011;8790;53.590;10.002;2023-04-25T05:10:31;12.23;;;2.87;;
17345;SDS011;8790;53.590;10.002;2023-04-25T05:13:09;11.27;;;2.73;;
17345;SDS011;8790;53.590;10.002;2023-04-25T05:16:17;13.10;;;3.13;;
17345;SDS011;8790;53.590;10.002;2023-04-25T05:18:55;9.37;;;2.53;;
17345;SDS011;8790;53.590;10.002;2023-04-25T05:21:36;9.33;;;2.77;;
17345;SDS011;8790;53.590;10.002;2023-04-25T05:24:17;9.00;;;2.80;;
17345;SDS011;8790;53.590;10.002;2023-04-25T05:27:07;7.37;;;2.73;;
17345;SDS011;8790;53.590;10.002;2023-04-25T05:30:07;11.57;;;3.07;;
17345;SDS011;8790;53.590;10.002;2023-04-25T05:32:53;12.00;;;3.27;;
17345;SDS011;8790;53.590;10.002;2023-04-25T05:35:25;11.77;;;3.00;;
17345;SDS011;8790;53.590;10.002;2023-04-25T05:37:57;8.60;;;3.07;;
17345;SDS011;8790;53.590;10.002;2023-04-25T05:40:45;11.13;;;2.73;;
17345;SDS011;8790;53.590;10.002;2023-04-25T05:43:36;9.47;;;3.00;;
17345;SDS011;8790;53.590;10.002;2023-04-25T05:46:24;11.60;;;2.80;;
17345;SDS011;8790;53.590;10.002;2023-04-25T05:49:30;11.77;;;2.40;;
17345;SDS011;8790;53.590;10.002;2023-04-25T05:52:21;11.97;;;3.47;;
17345;SDS011;8790;53.590;10.002;2023-04-25T05:55:02;12.93;;;3.00;;
17345;SDS011;8790;53.590;10.002;2023-04-25T05:57:35;11.63;;;3.17;;
17345;SDS011;8790;53.590;10.002;2023-04-25T06:00:09;11.77;;;2.90;;
17345;SDS011;8790;53.590;10.002;2023-04-25T06:02:46;9.90;;;2.70;;
17345;SDS011;8790;53.590;10.002;2023-04-25T06:05:20;10.83;;;3.00;;
17345;SDS011;8790;53.590;10.002;2023-04-25T06:07:52;9.33;;;2.93;;
17345;SDS011;8790;53.590;10.002;2023-04-25T06:10:24;13.73;;;3.23;;
17345;SDS011;8790;53.590;10.002;2023-04-25T06:12:56;15.37;;;3.17;;
17345;SDS011;8790;53.590;10.002;2023-04-25T06:15:28;8.67;;;2.60;;
17345;SDS011;8790;53.590;10.002;2023-04-25T06:18:00;14.67;;;3.07;;
17345;SDS011;8790;53.590;10.002;2023-04-25T06:20:33;8.17;;;2.47;;
17345;SDS011;8790;53.590;10.002;2023-04-25T06:23:05;10.17;;;2.77;;
17345;SDS011;8790;53.590;10.002;2023-04-25T06:25:49;16.63;;;3.03;;
17345;SDS011;8790;53.590;10.002;2023-04-25T06:28:21;10.90;;;2.60;;
17345;SDS011;8790;53.590;10.002;2023-04-25T06:30:54;8.40;;;2.17;;
17345;SDS011;8790;53.590;10.002;2023-04-25T06:33:26;11.13;;;2.40;;
17345;SDS011;8790;53.590;10.002;2023-04-25T06:36:00;8.87;;;2.80;;
17345;SDS011;8790;53.590;10.002;2023-04-25T06:38:33;12.50;;;2.70;;
17345;SDS011;8790;53.590;10.002;2023-04-25T06:41:05;9.60;;;2.80;;
17345;SDS011;8790;53.590;10.002;2023-04-25T06:43:39;10.67;;;3.00;;
17345;SDS011;8790;53.590;10.002;2023-04-25T06:46:28;6.93;;;2.57;;
17345;SDS011;8790;53.590;10.002;2023-04-25T06:49:02;8.37;;;2.77;;
17345;SDS011;8790;53.590;10.002;2023-04-25T06:51:36;8.93;;;2.40;;
17345;SDS011;8790;53.590;10.002;2023-04-25T06:54:08;8.47;;;2.63;;
17345;SDS011;8790;53.590;10.002;2023-04-25T06:56:47;7.60;;;2.03;;
17345;SDS011;8790;53.590;10.002;2023-04-25T06:59:19;12.40;;;3.00;;
17345;SDS011;8790;53.590;10.002;2023-04-25T07:01:51;9.07;;;2.40;;
17345;SDS011;8790;53.590;10.002;2023-04-25T07:04:28;13.40;;;2.90;;
17345;SDS011;8790;53.590;10.002;2023-04-25T07:07:03;14.37;;;2.70;;
17345;SDS011;8790;53.590;10.002;2023-04-25T07:09:42;8.83;;;2.40;;
17345;SDS011;8790;53.590;10.002;2023-04-25T07:12:15;7.83;;;2.87;;
17345;SDS011;8790;53.590;10.002;2023-04-25T07:14:47;9.63;;;2.23;;
17345;SDS011;8790;53.590;10.002;2023-04-25T07:17:19;13.07;;;2.60;;
17345;SDS011;8790;53.590;10.002;2023-04-25T07:19:51;9.43;;;2.50;;
17345;SDS011;8790;53.590;10.002;2023-04-25T07:22:24;8.17;;;2.20;;
17345;SDS011;8790;53.590;10.002;2023-04-25T07:24:57;10.23;;;2.37;;
17345;SDS011;8790;53.590;10.002;2023-04-25T07:27:32;6.40;;;2.20;;
17345;SDS011;8790;53.590;10.002;2023-04-25T07:30:10;6.07;;;1.97;;
17345;SDS011;8790;53.590;10.002;2023-04-25T07:32:43;9.17;;;2.00;;
17345;SDS011;8790;53.590;10.002;2023-04-25T07:35:15;8.97;;;2.00;;
17345;SDS011;8790;53.590;10.002;2023-04-25T07:37:49;6.00;;;2.07;;
17345;SDS011;8790;53.590;10.002;2023-04-25T07:40:23;9.57;;;2.07;;
17345;SDS011;8790;53.590;10.002;2023-04-25T07:43:00;8.97;;;2.03;;
17345;SDS011;8790;53.590;10.002;2023-04-25T07:45:38;11.17;;;2.60;;
17345;SDS011;8790;53.590;10.002;2023-04-25T07:48:11;9.57;;;2.07;;
17345;SDS011;8790;53.590;10.002;2023-04-25T07:50:44;8.43;;;2.10;;
17345;SDS011;8790;53.590;10.002;2023-04-25T07:53:17;7.00;;;1.80;;
17345;SDS011;8790;53.590;10.002;2023-04-25T07:55:55;6.33;;;2.27;;
17345;SDS011;8790;53.590;10.002;2023-04-25T07:58:27;8.13;;;2.30;;
17345;SDS011;8790;53.590;10.002;2023-04-25T08:01:03;10.17;;;2.37;;
17345;SDS011;8790;53.590;10.002;2023-04-25T08:03:49;7.00;;;2.07;;
17345;SDS011;8790;53.590;10.002;2023-04-25T08:06:36;10.33;;;2.37;;
17345;SDS011;8790;53.590;10.002;2023-04-25T08:09:18;7.77;;;2.00;;
17345;SDS011;8790;53.590;10.002;2023-04-25T08:11:50;12.90;;;2.10;;
17345;SDS011;8790;53.590;10.002;2023-04-25T08:14:27;8.43;;;2.00;;
17345;SDS011;8790;53.590;10.002;2023-04-25T08:17:05;9.03;;;1.77;;
17345;SDS011;8790;53.590;10.002;2023-04-25T08:19:43;6.87;;;1.80;;
17345;SDS011;8790;53.590;10.002;2023-04-25T08:22:23;8.63;;;2.20;;
17345;SDS011;8790;53.590;10.002;2023-04-25T08:25:03;7.47;;;1.97;;
17345;SDS011;8790;53.590;10.002;2023-04-25T08:27:36;6.33;;;2.13;;
17345;SDS011;8790;53.590;10.002;2023-04-25T08:30:09;7.13;;;1.90;;
17345;SDS011;8790;53.590;10.002;2023-04-25T08:32:43;8.13;;;1.80;;
17345;SDS011;8790;53.590;10.002;2023-04-25T08:35:35;10.33;;;2.17;;
17345;SDS011;8790;53.590;10.002;2023-04-25T08:38:07;8.63;;;2.20;;
17345;SDS011;8790;53.590;10.002;2023-04-25T08:40:40;8.23;;;1.87;;
17345;SDS011;8790;53.590;10.002;2023-04-25T08:43:20;6.87;;;1.90;;
17345;SDS011;8790;53.590;10.002;2023-04-25T08:45:52;8.27;;;2.20;;
17345;SDS011;8790;53.590;10.002;2023-04-25T08:48:48;6.40;;;1.87;;
17345;SDS011;8790;53.590;10.002;2023-04-25T08:51:22;6.60;;;1.67;;
17345;SDS011;8790;53.590;10.002;2023-04-25T08:53:55;9.83;;;2.17;;
17345;SDS011;8790;53.590;10.002;2023-04-25T08:56:34;8.00;;;2.10;;
17345;SDS011;8790;53.590;10.002;2023-04-25T08:59:06;8.70;;;2.10;;
17345;SDS011;8790;53.590;10.002;2023-04-25T09:01:40;8.17;;;1.63;;
17345;SDS011;8790;53.590;10.002;2023-04-25T09:04:12;15.13;;;2.80;;
17345;SDS011;8790;53.590;10.002;2023-04-25T09:06:44;6.43;;;1.83;;
17345;SDS011;8790;53.590;10.002;2023-04-25T09:09:16;6.13;;;1.50;;
17345;SDS011;8790;53.590;10.002;2023-04-25T09:11:50;9.50;;;2.13;;
17345;SDS011;8790;53.590;10.002;2023-04-25T09:14:24;5.07;;;1.70;;
17345;SDS011;8790;53.590;10.002;2023-04-25T09:17:06;5.40;;;1.33;;
17345;SDS011;8790;53.590;10.002;2023-04-25T09:20:05;8.80;;;1.77;;
17345;SDS011;8790;53.590;10.002;2023-04-25T09:22:39;6.43;;;1.37;;
17345;SDS011;8790;53.590;10.002;2023-04-25T09:25:12;4.97;;;1.50;;
17345;SDS011;8790;53.590;10.002;2023-04-25T09:27:50;5.67;;;1.67;;
17345;SDS011;8790;53.590;10.002;2023-04-25T09:30:29;5.80;;;1.57;;
17345;SDS011;8790;53.590;10.002;2023-04-25T09:33:10;7.07;;;1.50;;
17345;SDS011;8790;53.590;10.002;2023-04-25T09:35:45;4.37;;;1.37;;
17345;SDS011;8790;53.590;10.002;2023-04-25T09:38:30;7.57;;;1.60;;
17345;SDS011;8790;53.590;10.002;2023-04-25T09:41:11;6.93;;;1.90;;
17345;SDS011;8790;53.590;10.002;2023-04-25T09:43:49;4.00;;;1.50;;
17345;SDS011;8790;53.590;10.002;2023-04-25T09:46:21;6.00;;;1.90;;
17345;SDS011;8790;53.590;10.002;2023-04-25T09:48:58;11.07;;;1.90;;
17345;SDS011;8790;53.590;10.002;2023-04-25T09:51:53;8.07;;;1.93;;
17345;SDS011;8790;53.590;10.002;2023-04-25T09:54:26;4.53;;;1.50;;
17345;SDS011;8790;53.590;10.002;2023-04-25T09:57:10;7.00;;;1.80;;
17345;SDS011;8790;53.590;10.002;2023-04-25T09:59:45;5.80;;;1.57;;
17345;SDS011;8790;53.590;10.002;2023-04-25T10:02:20;8.03;;;1.70;;
17345;SDS011;8790;53.590;10.002;2023-04-25T10:04:55;9.97;;;1.70;;
17345;SDS011;8790;53.590;10.002;2023-04-25T10:07:43;5.20;;;1.47;;
17345;SDS011;8790;53.590;10.002;2023-04-25T10:10:20;7.77;;;2.07;;
17345;SDS011;8790;53.590;10.002;2023-04-25T10:12:55;5.63;;;1.90;;
17345;SDS011;8790;53.590;10.002;2023-04-25T10:15:29;5.73;;;1.63;;
17345;SDS011;8790;53.590;10.002;2023-04-25T10:18:01;8.20;;;1.50;;
17345;SDS011;8790;53.590;10.002;2023-04-25T10:20:33;8.13;;;1.60;;
17345;SDS011;8790;53.590;10.002;2023-04-25T10:23:06;5.70;;;1.30;;
17345;SDS011;8790;53.590;10.002;2023-04-25T10:25:43;6.00;;;1.87;;
17345;SDS011;8790;53.590;10.002;2023-04-25T10:28:16;4.37;;;1.23;;
17345;SDS011;8790;53.590;10.002;2023-04-25T10:30:59;3.67;;;1.17;;
17345;SDS011;8790;53.590;10.002;2023-04-25T10:33:34;6.40;;;1.70;;
17345;SDS011;8790;53.590;10.002;2023-04-25T10:36:10;4.80;;;1.30;;
17345;SDS011;8790;53.590;10.002;2023-04-25T10:38:43;5.00;;;1.50;;
17345;SDS011;8790;53.590;10.002;2023-04-25T10:41:17;7.97;;;1.90;;
17345;SDS011;8790;53.590;10.002;2023-04-25T10:43:58;4.07;;;1.20;;
17345;SDS011;8790;53.590;10.002;2023-04-25T10:46:33;5.77;;;1.30;;
17345;SDS011;8790;53.590;10.002;2023-04-25T10:49:06;7.10;;;1.37;;
17345;SDS011;8790;53.590;10.002;2023-04-25T10:51:39;5.87;;;1.80;;
17345;SDS011;8790;53.590;10.002;2023-04-25T10:54:11;9.87;;;1.70;;
17345;SDS011;8790;53.590;10.002;2023-04-25T10:56:43;6.97;;;1.47;;
17345;SDS011;8790;53.590;10.002;2023-04-25T10:59:15;8.53;;;2.13;;
17345;SDS011;8790;53.590;10.002;2023-04-25T11:01:51;9.03;;;1.70;;
17345;SDS011;8790;53.590;10.002;2023-04-25T11:04:24;7.37;;;1.60;;
17345;SDS011;8790;53.590;10.002;2023-04-25T11:07:02;5.63;;;1.60;;
17345;SDS011;8790;53.590;10.002;2023-04-25T11:09:40;5.83;;;1.37;;
17345;SDS011;8790;53.590;10.002;2023-04-25T11:12:12;4.90;;;1.33;;
17345;SDS011;8790;53.590;10.002;2023-04-25T11:14:45;7.93;;;1.40;;
17345;SDS011;8790;53.590;10.002;2023-04-25T11:17:18;3.43;;;1.00;;
17345;SDS011;8790;53.590;10.002;2023-04-25T11:19:50;7.17;;;1.53;;
17345;SDS011;8790;53.590;10.002;2023-04-25T11:22:22;6.37;;;1.40;;
17345;SDS011;8790;53.590;10.002;2023-04-25T11:24:54;5.67;;;1.53;;
17345;SDS011;8790;53.590;10.002;2023-04-25T11:27:25;8.27;;;1.47;;
17345;SDS011;8790;53.590;10.002;2023-04-25T11:29:57;5.37;;;1.27;;
17345;SDS011;8790;53.590;10.002;2023-04-25T11:32:30;4.90;;;1.50;;
17345;SDS011;8790;53.590;10.002;2023-04-25T11:35:02;5.23;;;1.30;;
17345;SDS011;8790;53.590;10.002;2023-04-25T11:37:36;5.77;;;1.70;;
17345;SDS011;8790;53.590;10.002;2023-04-25T11:40:09;8.37;;;1.50;;
17345;SDS011;8790;53.590;10.002;2023-04-25T11:42:43;5.63;;;1.60;;
17345;SDS011;8790;53.590;10.002;2023-04-25T11:45:16;7.47;;;1.47;;
17345;SDS011;8790;53.590;10.002;2023-04-25T11:47:50;4.60;;;1.30;;
17345;SDS011;8790;53.590;10.002;2023-04-25T11:50:22;6.83;;;1.97;;
17345;SDS011;8790;53.590;10.002;2023-04-25T11:52:55;6.97;;;1.30;;
17345;SDS011;8790;53.590;10.002;2023-04-25T11:55:27;8.27;;;3.00;;
17345;SDS011;8790;53.590;10.002;2023-04-25T11:58:01;6.10;;;1.30;;
17345;SDS011;8790;53.590;10.002;2023-04-25T12:00:35;5.17;;;1.40;;
17345;SDS011;8790;53.590;10.002;2023-04-25T12:03:08;6.23;;;1.40;;
17345;SDS011;8790;53.590;10.002;2023-04-25T12:05:40;5.33;;;1.50;;
17345;SDS011;8790;53.590;10.002;2023-04-25T12:08:12;5.00;;;1.27;;
17345;SDS011;8790;53.590;10.002;2023-04-25T12:10:45;4.57;;;1.20;;
17345;SDS011;8790;53.590;10.002;2023-04-25T12:13:19;6.30;;;1.30;;
17345;SDS011;8790;53.590;10.002;2023-04-25T12:15:52;4.37;;;1.13;;
17345;SDS011;8790;53.590;10.002;2023-04-25T12:18:27;3.63;;;1.10;;
17345;SDS011;8790;53.590;10.002;2023-04-25T12:20:59;3.43;;;1.30;;
17345;SDS011;8790;53.590;10.002;2023-04-25T12:23:31;3.33;;;0.90;;
17345;SDS011;8790;53.590;10.002;2023-04-25T12:26:03;4.90;;;1.23;;
17345;SDS011;8790;53.590;10.002;2023-04-25T12:28:35;3.90;;;1.10;;
17345;SDS011;8790;53.590;10.002;2023-04-25T12:31:07;3.63;;;1.03;;
17345;SDS011;8790;53.590;10.002;2023-04-25T12:33:40;2.63;;;0.90;;
17345;SDS011;8790;53.590;10.002;2023-04-25T12:36:12;2.97;;;1.17;;
17345;SDS011;8790;53.590;10.002;2023-04-25T12:38:44;6.80;;;1.10;;
17345;SDS011;8790;53.590;10.002;2023-04-25T12:41:16;4.40;;;0.90;;
17345;SDS011;8790;53.590;10.002;2023-04-25T12:43:47;5.97;;;1.20;;
17345;SDS011;8790;53.590;10.002;2023-04-25T12:46:19;4.17;;;1.03;;
17345;SDS011;8790;53.590;10.002;2023-04-25T12:48:52;4.63;;;1.40;;
17345;SDS011;8790;53.590;10.002;2023-04-25T12:51:25;3.67;;;1.30;;
17345;SDS011;8790;53.590;10.002;2023-04-25T12:53:57;8.37;;;1.97;;
17345;SDS011;8790;53.590;10.002;2023-04-25T12:56:29;4.67;;;1.30;;
17345;SDS011;8790;53.590;10.002;2023-04-25T12:59:02;6.17;;;1.23;;
17345;SDS011;8790;53.590;10.002;2023-04-25T13:01:34;5.47;;;1.10;;
17345;SDS011;8790;53.590;10.002;2023-04-25T13:04:07;4.83;;;1.20;;
17345;SDS011;8790;53.590;10.002;2023-04-25T13:06:39;4.37;;;1.43;;
17345;SDS011;8790;53.590;10.002;2023-04-25T13:09:11;9.00;;;1.40;;
17345;SDS011;8790;53.590;10.002;2023-04-25T13:11:43;5.17;;;1.83;;
17345;SDS011;8790;53.590;10.002;2023-04-25T13:14:15;4.50;;;1.20;;
17345;SDS011;8790;53.590;10.002;2023-04-25T13:16:47;6.93;;;1.43;;
17345;SDS011;8790;53.590;10.002;2023-04-25T13:19:20;4.07;;;1.07;;
17345;SDS011;8790;53.590;10.002;2023-04-25T13:21:52;2.63;;;1.30;;
17345;SDS011;8790;53.590;10.002;2023-04-25T13:24:23;3.90;;;1.10;;
17345;SDS011;8790;53.590;10.002;2023-04-25T13:26:56;2.90;;;1.13;;
17345;SDS011;8790;53.590;10.002;2023-04-25T13:29:27;4.27;;;1.40;;
17345;SDS011;8790;53.590;10.002;2023-04-25T13:31:59;6.53;;;1.70;;
17345;SDS011;8790;53.590;10.002;2023-04-25T13:34:32;4.13;;;1.40;;
17345;SDS011;8790;53.590;10.002;2023-04-25T13:37:04;4.90;;;1.37;;
17345;SDS011;8790;53.590;10.002;2023-04-25T13:39:36;5.90;;;1.53;;
17345;SDS011;8790;53.590;10.002;2023-04-25T13:42:08;6.40;;;1.50;;
17345;SDS011;8790;53.590;10.002;2023-04-25T13:44:39;6.93;;;1.50;;
17345;SDS011;8790;53.590;10.002;2023-04-25T13:47:11;6.27;;;1.60;;
17345;SDS011;8790;53.590;10.002;2023-04-25T13:49:44;7.87;;;1.90;;
17345;SDS011;8790;53.590;10.002;2023-04-25T13:52:16;4.60;;;1.70;;
17345;SDS011;8790;53.590;10.002;2023-04-25T13:54:47;5.03;;;1.50;;
17345;SDS011;8790;53.590;10.002;2023-04-25T13:57:19;3.23;;;1.50;;
17345;SDS011;8790;53.590;10.002;2023-04-25T13:59:51;3.53;;;1.20;;
17345;SDS011;8790;53.590;10.002;2023-04-25T14:02:23;3.20;;;1.30;;
17345;SDS011;8790;53.590;10.002;2023-04-25T14:04:57;4.23;;;1.27;;
17345;SDS011;8790;53.590;10.002;2023-04-25T14:07:28;3.10;;;1.20;;
17345;SDS011;8790;53.590;10.002;2023-04-25T14:10:01;4.43;;;1.30;;
17345;SDS011;8790;53.590;10.002;2023-04-25T14:12:34;3.67;;;1.30;;
17345;SDS011;8790;53.590;10.002;2023-04-25T14:15:06;7.40;;;1.70;;
17345;SDS011;8790;53.590;10.002;2023-04-25T14:17:38;4.90;;;1.53;;
17345;SDS011;8790;53.590;10.002;2023-04-25T14:20:11;10.73;;;2.07;;
17345;SDS011;8790;53.590;10.002;2023-04-25T14:22:43;6.13;;;1.67;;
17345;SDS011;8790;53.590;10.002;2023-04-25T14:25:15;5.57;;;1.30;;
17345;SDS011;8790;53.590;10.002;2023-04-25T14:27:46;4.67;;;1.30;;
17345;SDS011;8790;53.590;10.002;2023-04-25T14:30:20;5.27;;;1.70;;
17345;SDS011;8790;53.590;10.002;2023-04-25T14:32:52;5.83;;;1.50;;
17345;SDS011;8790;53.590;10.002;2023-04-25T14:35:26;7.47;;;1.50;;
17345;SDS011;8790;53.590;10.002;2023-04-25T14:37:58;4.97;;;1.43;;
17345;SDS011;8790;53.590;10.002;2023-04-25T14:40:30;13.13;;;2.20;;
17345;SDS011;8790;53.590;10.002;2023-04-25T14:43:01;4.23;;;1.40;;
17345;SDS011;8790;53.590;10.002;2023-04-25T14:45:33;3.43;;;1.33;;
17345;SDS011;8790;53.590;10.002;2023-04-25T14:48:05;3.83;;;1.40;;
17345;SDS011;8790;53.590;10.002;2023-04-25T14:50:39;5.10;;;1.40;;
17345;SDS011;8790;53.590;10.002;2023-04-25T14:53:10;5.83;;;1.50;;
17345;SDS011;8790;53.590;10.002;2023-04-25T14:55:42;4.27;;;1.43;;
17345;SDS011;8790;53.590;10.002;2023-04-25T14:58:14;2.67;;;1.00;;
17345;SDS011;8790;53.590;10.002;2023-04-25T15:00:45;3.43;;;1.10;;
17345;SDS011;8790;53.590;10.002;2023-04-25T15:03:17;3.40;;;0.90;;
17345;SDS011;8790;53.590;10.002;2023-04-25T15:05:50;3.77;;;1.10;;
17345;SDS011;8790;53.590;10.002;2023-04-25T15:08:22;5.20;;;1.50;;
17345;SDS011;8790;53.590;10.002;2023-04-25T15:10:53;5.20;;;1.77;;
17345;SDS011;8790;53.590;10.002;2023-04-25T15:13:25;5.50;;;1.50;;
17345;SDS011;8790;53.590;10.002;2023-04-25T15:15:57;4.07;;;1.60;;
17345;SDS011;8790;53.590;10.002;2023-04-25T15:18:29;5.00;;;1.37;;
17345;SDS011;8790;53.590;10.002;2023-04-25T15:21:02;6.40;;;1.50;;
17345;SDS011;8790;53.590;10.002;2023-04-25T15:23:34;5.90;;;1.70;;
17345;SDS011;8790;53.590;10.002;2023-04-25T15:26:06;6.30;;;1.70;;
17345;SDS011;8790;53.590;10.002;2023-04-25T15:28:38;4.43;;;1.40;;
17345;SDS011;8790;53.590;10.002;2023-04-25T15:31:09;5.90;;;1.57;;